Time;durP1;ratioP1;P1;durP2;ratioP2;P2;SDS_P1;SDS_P2;PMS_P1;PMS_P2;Temp;Humidity;BMP_temperature;BMP_pressure;BME280_temperature;BME280_humidity;BME280_pressure;Samples;Min_cycle;Max_cycle;Signal;HPM_P1;HPM_P2
2024/03/20 00:01:56;;;;;;;8.55;5.13;;;;;;;;;;5093704;28;20520;-60
2024/03/20 00:04:23;;;;;;;7.57;5.50;;;;;;;;;;5058161;28;20390;-60
2024/03/20 00:06:50;;;;;;;6.10;4.90;;;;;;;;;;5079422;28;20051;-60
2024/03/20 00:09:19;;;;;;;7.40;4.82;;;;;;;;;;5062575;28;20060;-60
2024/03/20 00:11:47;;;;;;;7.63;5.10;;;;;;;;;;5066702;28;20092;-59
2024/03/20 00:14:15;;;;;;;6.97;4.63;;;;;;;;;;5073294;28;20508;-60
2024/03/20 00:16:42;;;;;;;7.68;4.88;;;;;;;;;;5083555;28;20044;-60
2024/03/20 00:19:09;;;;;;;7.85;4.70;;;;;;;;;;5073051;28;20052;-60
2024/03/20 00:21:36;;;;;;;6.40;4.13;;;;;;;;;;5072857;28;20044;-59
2024/03/20 00:24:03;;;;;;;7.13;5.45;;;;;;;;;;5063421;28;20505;-60
2024/03/20 00:26:30;;;;;;;9.20;4.90;;;;;;;;;;5090745;28;20063;-60
2024/03/20 00:28:57;;;;;;;8.05;5.40;;;;;;;;;;5092863;28;20059;-59
2024/03/20 00:31:25;;;;;;;8.10;4.68;;;;;;;;;;5091968;28;20397;-59
2024/03/20 00:33:53;;;;;;;8.13;5.60;;;;;;;;;;5067525;28;20048;-59
2024/03/20 00:36:21;;;;;;;8.13;4.80;;;;;;;;;;5052876;28;20057;-58
2024/03/20 00:38:48;;;;;;;6.75;4.57;;;;;;;;;;5053517;28;20053;-60
2024/03/20 00:41:15;;;;;;;7.93;5.15;;;;;;;;;;5052352;28;20406;-60
2024/03/20 00:43:41;;;;;;;9.27;5.40;;;;;;;;;;5052196;28;20049;-59
2024/03/20 00:46:08;;;;;;;8.25;5.30;;;;;;;;;;5064938;28;20082;-60
2024/03/20 00:48:36;;;;;;;8.77;4.78;;;;;;;;;;5077939;28;20510;-60
2024/03/20 00:51:02;;;;;;;9.57;5.68;;;;;;;;;;5052578;28;20053;-60
2024/03/20 00:53:29;;;;;;;7.28;5.07;;;;;;;;;;5055479;28;20045;-60
2024/03/20 00:55:56;;;;;;;7.78;5.55;;;;;;;;;;5052561;28;20064;-59
2024/03/20 00:58:23;;;;;;;5.47;4.30;;;;;;;;;;5073877;28;20493;-60
2024/03/20 01:00:49;;;;;;;6.50;4.60;;;;;;;;;;5062669;28;20503;-60
2024/03/20 01:03:16;;;;;;;7.55;4.75;;;;;;;;;;5091716;28;20048;-60
2024/03/20 01:05:46;;;;;;;6.43;5.13;;;;;;;;;;5091988;28;20052;-59
2024/03/20 01:08:14;;;;;;;7.70;5.50;;;;;;;;;;5082955;28;20049;-59
2024/03/20 01:10:41;;;;;;;6.22;4.63;;;;;;;;;;5068387;28;20052;-59
2024/03/20 01:13:08;;;;;;;7.93;4.93;;;;;;;;;;5090144;28;20058;-59
2024/03/20 01:15:35;;;;;;;7.53;5.25;;;;;;;;;;5090529;28;20048;-59
2024/03/20 01:18:02;;;;;;;7.63;5.03;;;;;;;;;;5074930;28;20048;-60
2024/03/20 01:20:30;;;;;;;9.15;5.07;;;;;;;;;;5072176;28;20421;-60
2024/03/20 01:22:58;;;;;;;8.02;4.30;;;;;;;;;;5071319;28;20063;-59
2024/03/20 01:25:25;;;;;;;7.53;4.72;;;;;;;;;;5072201;28;20386;-60
2024/03/20 01:27:52;;;;;;;5.18;4.45;;;;;;;;;;5080311;28;20059;-59
2024/03/20 01:30:19;;;;;;;6.75;4.63;;;;;;;;;;5092620;28;20059;-60
2024/03/20 01:32:46;;;;;;;5.90;4.40;;;;;;;;;;5072677;28;20052;-57
2024/03/20 01:35:12;;;;;;;6.28;4.05;;;;;;;;;;5051608;28;20053;-59
2024/03/20 01:37:39;;;;;;;6.07;4.35;;;;;;;;;;5049727;28;20118;-60
2024/03/20 01:40:09;;;;;;;6.95;3.92;;;;;;;;;;5052036;28;20048;-60
2024/03/20 01:42:35;;;;;;;6.93;4.22;;;;;;;;;;5051948;28;20060;-60
2024/03/20 01:45:13;;;;;;;8.80;4.50;;;;;;;;;;5057373;28;20494;-60
2024/03/20 01:47:40;;;;;;;7.57;4.80;;;;;;;;;;5071895;28;20056;-60
2024/03/20 01:50:08;;;;;;;5.88;4.65;;;;;;;;;;5071779;28;20049;-59
2024/03/20 01:52:35;;;;;;;8.05;4.80;;;;;;;;;;5056743;28;20044;-59
2024/03/20 01:55:02;;;;;;;6.45;4.70;;;;;;;;;;5068649;28;20063;-59
2024/03/20 01:57:30;;;;;;;6.57;4.68;;;;;;;;;;5072062;28;20075;-60
2024/03/20 01:59:57;;;;;;;6.35;4.25;;;;;;;;;;5072609;28;20387;-60
2024/03/20 02:02:24;;;;;;;6.63;4.35;;;;;;;;;;5072075;28;20479;-60
2024/03/20 02:04:50;;;;;;;8.32;4.55;;;;;;;;;;5069175;28;20498;-60
2024/03/20 02:07:17;;;;;;;6.88;4.07;;;;;;;;;;5051849;28;20060;-59
2024/03/20 02:09:44;;;;;;;6.13;4.03;;;;;;;;;;5053370;28;20046;-60
2024/03/20 02:12:11;;;;;;;8.65;4.30;;;;;;;;;;5072070;28;20055;-59
2024/03/20 02:14:39;;;;;;;5.70;4.10;;;;;;;;;;5071777;28;20063;-60
2024/03/20 02:17:06;;;;;;;5.90;3.90;;;;;;;;;;5080013;28;20052;-60
2024/03/20 02:19:33;;;;;;;6.13;4.20;;;;;;;;;;5052832;28;20048;-59
2024/03/20 02:22:02;;;;;;;8.70;4.57;;;;;;;;;;5055202;28;20053;-60
2024/03/20 02:24:28;;;;;;;6.32;4.00;;;;;;;;;;5055323;28;20048;-59
2024/03/20 02:26:55;;;;;;;5.28;3.80;;;;;;;;;;5055212;28;20419;-59
2024/03/20 02:29:22;;;;;;;5.45;3.78;;;;;;;;;;5055350;28;20057;-60
2024/03/20 02:31:49;;;;;;;7.45;3.50;;;;;;;;;;5081110;28;20087;-60
2024/03/20 02:34:16;;;;;;;4.95;3.22;;;;;;;;;;5089766;28;20056;-60
2024/03/20 02:36:46;;;;;;;7.07;3.53;;;;;;;;;;5079871;28;20048;-59
2024/03/20 02:39:14;;;;;;;5.15;3.30;;;;;;;;;;5073084;28;20056;-59
2024/03/20 02:41:41;;;;;;;5.38;3.30;;;;;;;;;;5073026;28;20478;-60
2024/03/20 02:44:08;;;;;;;5.13;3.38;;;;;;;;;;5075290;28;20063;-60
2024/03/20 02:46:35;;;;;;;5.75;3.72;;;;;;;;;;5080162;28;20048;-60
2024/03/20 02:49:01;;;;;;;7.90;3.25;;;;;;;;;;5094544;28;20055;-60
2024/03/20 02:51:28;;;;;;;5.50;3.30;;;;;;;;;;5090126;28;20048;-60
2024/03/20 02:53:55;;;;;;;5.47;3.10;;;;;;;;;;5072013;28;20052;-60
2024/03/20 02:56:24;;;;;;;8.75;3.58;;;;;;;;;;5057654;28;20474;-60
2024/03/20 02:58:51;;;;;;;5.93;3.20;;;;;;;;;;5054871;28;20056;-60
2024/03/20 03:01:17;;;;;;;4.93;3.53;;;;;;;;;;5060830;28;20474;-59
2024/03/20 03:03:45;;;;;;;4.43;3.50;;;;;;;;;;5061607;28;20053;-60
2024/03/20 03:06:11;;;;;;;4.05;2.95;;;;;;;;;;5054524;28;20075;-59
2024/03/20 03:08:38;;;;;;;7.75;3.30;;;;;;;;;;5054147;28;20060;-60
2024/03/20 03:11:06;;;;;;;5.47;3.25;;;;;;;;;;5064179;28;20053;-60
2024/03/20 03:13:34;;;;;;;6.38;3.80;;;;;;;;;;5074376;28;20056;-60
2024/03/20 03:16:04;;;;;;;8.02;3.75;;;;;;;;;;5075124;28;20076;-60
2024/03/20 03:18:31;;;;;;;5.15;3.40;;;;;;;;;;5080296;28;20059;-60
2024/03/20 03:20:57;;;;;;;4.43;3.25;;;;;;;;;;5094161;28;20048;-60
2024/03/20 03:23:24;;;;;;;6.43;3.33;;;;;;;;;;5077545;28;20064;-61
2024/03/20 03:25:51;;;;;;;4.57;3.50;;;;;;;;;;5072284;28;20417;-60
2024/03/20 03:28:18;;;;;;;7.05;3.42;;;;;;;;;;5073924;28;20066;-60
2024/03/20 03:30:46;;;;;;;4.53;3.03;;;;;;;;;;5074048;28;20052;-60
2024/03/20 03:33:13;;;;;;;7.22;4.13;;;;;;;;;;5074891;28;20486;-60
2024/03/20 03:35:40;;;;;;;5.80;3.67;;;;;;;;;;5074328;28;20478;-60
2024/03/20 03:38:06;;;;;;;5.03;3.78;;;;;;;;;;5073891;28;20152;-60
2024/03/20 03:40:33;;;;;;;5.18;3.67;;;;;;;;;;5072625;28;20044;-60
2024/03/20 03:43:00;;;;;;;6.40;4.03;;;;;;;;;;5074212;28;20052;-60
2024/03/20 03:45:27;;;;;;;6.90;4.18;;;;;;;;;;5073546;28;20079;-61
2024/03/20 03:47:55;;;;;;;6.68;3.70;;;;;;;;;;5073756;28;20067;-60
2024/03/20 03:50:22;;;;;;;5.78;3.75;;;;;;;;;;5073293;28;20056;-60
2024/03/20 03:52:49;;;;;;;6.68;4.10;;;;;;;;;;5073668;28;20049;-60
2024/03/20 03:55:16;;;;;;;6.05;4.22;;;;;;;;;;5071741;28;20049;-60
2024/03/20 03:57:42;;;;;;;5.55;3.50;;;;;;;;;;5071834;28;20055;-60
2024/03/20 04:00:10;;;;;;;5.97;3.80;;;;;;;;;;5073392;28;20409;-60
2024/03/20 04:02:37;;;;;;;9.25;4.07;;;;;;;;;;5075393;28;20056;-60
2024/03/20 04:05:06;;;;;;;5.35;3.78;;;;;;;;;;5081966;28;20049;-60
2024/03/20 04:07:33;;;;;;;6.03;3.67;;;;;;;;;;5076517;28;20378;-59
2024/03/20 04:10:01;;;;;;;6.55;4.03;;;;;;;;;;5093447;28;20074;-60
2024/03/20 04:12:27;;;;;;;6.22;4.30;;;;;;;;;;5071785;28;20059;-60
2024/03/20 04:14:54;;;;;;;6.68;4.20;;;;;;;;;;5073472;28;20052;-60
2024/03/20 04:17:21;;;;;;;6.28;3.95;;;;;;;;;;5074149;28;20075;-59
2024/03/20 04:19:48;;;;;;;5.93;4.32;;;;;;;;;;5073271;28;20056;-59
2024/03/20 04:22:16;;;;;;;7.93;3.97;;;;;;;;;;5073083;28;20060;-59
2024/03/20 04:24:43;;;;;;;5.63;3.97;;;;;;;;;;5072989;28;20590;-59
2024/03/20 04:27:10;;;;;;;5.65;3.80;;;;;;;;;;5070108;28;20075;-59
2024/03/20 04:29:37;;;;;;;6.57;4.30;;;;;;;;;;5072734;28;20071;-60
2024/03/20 04:32:04;;;;;;;4.68;3.65;;;;;;;;;;5072963;28;20049;-59
2024/03/20 04:34:31;;;;;;;6.75;3.90;;;;;;;;;;5090181;28;20056;-60
2024/03/20 04:36:58;;;;;;;5.38;3.90;;;;;;;;;;5092904;28;20082;-59
2024/03/20 04:39:29;;;;;;;5.78;3.88;;;;;;;;;;5083328;28;20052;-60
2024/03/20 04:41:56;;;;;;;6.05;3.80;;;;;;;;;;5052222;28;20049;-60
2024/03/20 04:44:22;;;;;;;7.10;3.55;;;;;;;;;;5052148;28;20076;-59
2024/03/20 04:46:49;;;;;;;5.95;3.90;;;;;;;;;;5052556;28;20079;-60
2024/03/20 04:49:16;;;;;;;6.22;3.20;;;;;;;;;;5070249;28;20075;-59
2024/03/20 04:51:43;;;;;;;4.30;3.17;;;;;;;;;;5072920;28;20402;-59
2024/03/20 04:54:09;;;;;;;4.88;3.17;;;;;;;;;;5070787;28;20421;-59
2024/03/20 04:56:37;;;;;;;4.55;3.25;;;;;;;;;;5072466;28;20056;-60
2024/03/20 04:59:06;;;;;;;5.43;3.08;;;;;;;;;;5072402;28;20059;-60
2024/03/20 05:01:32;;;;;;;5.07;3.22;;;;;;;;;;5071520;28;20052;-60
2024/03/20 05:03:59;;;;;;;4.40;3.25;;;;;;;;;;5081965;28;20052;-59
2024/03/20 05:06:26;;;;;;;6.75;3.90;;;;;;;;;;5085727;28;20052;-60
2024/03/20 05:08:53;;;;;;;4.85;3.63;;;;;;;;;;5090326;28;20489;-59
2024/03/20 05:11:21;;;;;;;6.38;3.63;;;;;;;;;;5070929;28;20055;-60
2024/03/20 05:13:49;;;;;;;4.32;3.25;;;;;;;;;;5072212;28;20049;-60
2024/03/20 05:16:15;;;;;;;7.20;3.75;;;;;;;;;;5071849;28;20056;-60
2024/03/20 05:18:42;;;;;;;7.38;4.20;;;;;;;;;;5073258;28;20124;-59
2024/03/20 05:21:10;;;;;;;5.20;3.22;;;;;;;;;;5072413;28;20063;-59
2024/03/20 05:23:36;;;;;;;4.97;3.15;;;;;;;;;;5071037;28;20059;-60
2024/03/20 05:26:04;;;;;;;4.70;3.20;;;;;;;;;;5052949;28;20049;-59
2024/03/20 05:28:29;;;;;;;5.45;3.70;;;;;;;;;;5066370;28;20060;-60
2024/03/20 05:30:57;;;;;;;4.93;3.15;;;;;;;;;;5068679;28;20052;-59
2024/03/20 05:33:23;;;;;;;5.53;3.20;;;;;;;;;;5068340;28;20579;-60
2024/03/20 05:35:50;;;;;;;5.43;2.97;;;;;;;;;;5067835;28;20064;-60
2024/03/20 05:38:16;;;;;;;5.43;3.42;;;;;;;;;;5063175;28;20053;-60
2024/03/20 05:40:43;;;;;;;5.03;3.05;;;;;;;;;;5057610;28;20516;-60
2024/03/20 05:43:08;;;;;;;5.50;3.78;;;;;;;;;;5064586;28;20055;-59
2024/03/20 05:45:35;;;;;;;6.40;3.80;;;;;;;;;;5075972;28;20056;-58
2024/03/20 05:48:03;;;;;;;5.93;4.05;;;;;;;;;;5085562;28;20053;-59
2024/03/20 05:50:31;;;;;;;6.40;3.72;;;;;;;;;;5052629;28;20049;-59
2024/03/20 05:52:58;;;;;;;6.35;3.67;;;;;;;;;;5065576;28;20051;-58
2024/03/20 05:55:25;;;;;;;6.78;3.63;;;;;;;;;;5072072;28;20131;-58
2024/03/20 05:57:51;;;;;;;4.93;3.45;;;;;;;;;;5069556;28;20056;-58
2024/03/20 06:00:19;;;;;;;5.25;2.92;;;;;;;;;;5055652;28;20075;-59
2024/03/20 06:02:45;;;;;;;4.70;3.75;;;;;;;;;;5071927;28;20060;-59
2024/03/20 06:05:14;;;;;;;5.93;3.60;;;;;;;;;;5075080;28;20052;-59
2024/03/20 06:07:40;;;;;;;5.28;3.30;;;;;;;;;;5092600;28;20139;-59
2024/03/20 06:10:08;;;;;;;4.22;3.17;;;;;;;;;;5084494;28;20123;-59
2024/03/20 06:12:34;;;;;;;5.32;3.60;;;;;;;;;;5075455;28;20052;-59
2024/03/20 06:15:01;;;;;;;6.57;3.70;;;;;;;;;;5068560;28;20114;-58
2024/03/20 06:17:27;;;;;;;6.05;3.28;;;;;;;;;;5067196;28;20056;-59
2024/03/20 06:19:56;;;;;;;5.57;3.42;;;;;;;;;;5067500;28;20056;-58
2024/03/20 06:22:23;;;;;;;4.20;3.30;;;;;;;;;;5068188;28;20471;-58
2024/03/20 06:24:50;;;;;;;5.40;3.40;;;;;;;;;;5073538;28;20490;-59
2024/03/20 06:27:15;;;;;;;5.43;3.67;;;;;;;;;;5074324;28;20052;-59
2024/03/20 06:29:43;;;;;;;5.40;3.42;;;;;;;;;;5074807;28;20450;-59
2024/03/20 06:32:08;;;;;;;8.93;5.20;;;;;;;;;;5075916;28;20048;-58
2024/03/20 06:34:35;;;;;;;7.82;3.60;;;;;;;;;;5065115;28;20470;-59
2024/03/20 06:37:02;;;;;;;4.88;3.10;;;;;;;;;;5063290;28;20486;-58
2024/03/20 06:39:31;;;;;;;6.75;3.22;;;;;;;;;;5067653;28;20052;-59
2024/03/20 06:41:56;;;;;;;4.75;3.22;;;;;;;;;;5072815;28;20060;-59
2024/03/20 06:44:23;;;;;;;7.10;3.50;;;;;;;;;;5071812;28;20123;-59
2024/03/20 06:46:49;;;;;;;9.07;4.13;;;;;;;;;;5068136;28;20049;-59
2024/03/20 06:49:18;;;;;;;10.80;3.75;;;;;;;;;;5091962;28;20055;-59
2024/03/20 06:51:49;;;;;;;7.82;4.30;;;;;;;;;;5059425;28;20513;-59
2024/03/20 06:54:19;;;;;;;7.45;4.45;;;;;;;;;;5058030;28;20041;-59
2024/03/20 06:56:48;;;;;;;5.75;4.15;;;;;;;;;;5071668;28;20048;-60
2024/03/20 06:59:15;;;;;;;7.07;4.07;;;;;;;;;;5061596;28;20398;-59
2024/03/20 07:01:41;;;;;;;5.38;3.72;;;;;;;;;;5071859;28;20490;-59
2024/03/20 07:04:08;;;;;;;11.32;4.40;;;;;;;;;;5063525;28;20139;-60
2024/03/20 07:06:34;;;;;;;6.85;4.40;;;;;;;;;;5060691;28;20056;-60
2024/03/20 07:09:01;;;;;;;7.97;4.30;;;;;;;;;;5064839;28;20048;-60
2024/03/20 07:11:27;;;;;;;6.95;3.67;;;;;;;;;;5068175;28;20056;-60
2024/03/20 07:13:56;;;;;;;7.95;3.80;;;;;;;;;;5062645;28;20048;-58
2024/03/20 07:16:22;;;;;;;6.97;3.95;;;;;;;;;;5065471;28;20049;-60
2024/03/20 07:18:49;;;;;;;5.38;3.58;;;;;;;;;;5076365;28;20048;-59
2024/03/20 07:21:15;;;;;;;8.63;3.88;;;;;;;;;;5094005;28;20051;-59
2024/03/20 07:23:41;;;;;;;5.65;3.88;;;;;;;;;;5093711;28;20481;-59
2024/03/20 07:26:07;;;;;;;5.95;3.80;;;;;;;;;;5069725;28;20057;-59
2024/03/20 07:28:37;;;;;;;9.40;3.97;;;;;;;;;;5068795;28;20075;-59
2024/03/20 07:31:05;;;;;;;4.22;2.97;;;;;;;;;;5081722;28;20075;-59
2024/03/20 07:33:32;;;;;;;8.93;5.05;;;;;;;;;;5079199;28;20111;-59
2024/03/20 07:35:58;;;;;;;6.88;4.40;;;;;;;;;;5072000;28;20044;-59
2024/03/20 07:38:25;;;;;;;8.70;4.65;;;;;;;;;;5086343;28;20504;-60
2024/03/20 07:40:51;;;;;;;7.90;4.43;;;;;;;;;;5076586;28;20060;-60
2024/03/20 07:43:18;;;;;;;8.55;4.45;;;;;;;;;;5053586;28;20049;-60
2024/03/20 07:45:43;;;;;;;6.75;3.88;;;;;;;;;;5052947;28;20056;-60
2024/03/20 07:48:12;;;;;;;7.68;4.60;;;;;;;;;;5064900;28;20106;-60
2024/03/20 07:50:38;;;;;;;7.05;4.55;;;;;;;;;;5060833;28;20049;-59
2024/03/20 07:53:05;;;;;;;9.02;4.45;;;;;;;;;;5058731;28;20055;-59
2024/03/20 07:55:32;;;;;;;8.35;5.18;;;;;;;;;;5054248;28;20375;-59
2024/03/20 07:57:59;;;;;;;8.27;5.00;;;;;;;;;;5069077;28;20041;-59
2024/03/20 08:00:28;;;;;;;6.25;4.65;;;;;;;;;;5065721;28;20421;-59
2024/03/20 08:02:55;;;;;;;8.57;5.03;;;;;;;;;;5074052;28;20056;-62
2024/03/20 08:05:23;;;;;;;6.10;4.78;;;;;;;;;;5060439;28;20519;-62
2024/03/20 08:07:50;;;;;;;8.20;5.00;;;;;;;;;;5071865;28;20052;-62
2024/03/20 08:10:15;;;;;;;8.77;5.10;;;;;;;;;;5066806;28;20501;-61
2024/03/20 08:12:42;;;;;;;8.23;5.00;;;;;;;;;;5075891;28;20063;-62
2024/03/20 08:15:09;;;;;;;6.95;4.72;;;;;;;;;;5072499;28;20056;-62
2024/03/20 08:17:36;;;;;;;7.97;4.75;;;;;;;;;;5072893;28;20052;-61
2024/03/20 08:20:02;;;;;;;7.60;4.80;;;;;;;;;;5053087;28;20053;-61
2024/03/20 08:22:30;;;;;;;6.40;4.43;;;;;;;;;;5053282;28;20049;-62
2024/03/20 08:24:56;;;;;;;6.43;4.97;;;;;;;;;;5056832;28;20051;-62
2024/03/20 08:27:26;;;;;;;8.50;4.35;;;;;;;;;;5070169;28;20394;-62
2024/03/20 08:29:54;;;;;;;6.97;4.00;;;;;;;;;;5081960;28;20047;-62
2024/03/20 08:32:21;;;;;;;6.57;4.93;;;;;;;;;;5066829;28;20053;-62
2024/03/20 08:34:47;;;;;;;6.95;4.93;;;;;;;;;;5075123;28;20052;-62
2024/03/20 08:37:14;;;;;;;7.25;4.45;;;;;;;;;;5061670;28;20052;-62
2024/03/20 08:39:42;;;;;;;7.43;4.10;;;;;;;;;;5057003;28;20049;-62
2024/03/20 08:42:08;;;;;;;7.40;4.30;;;;;;;;;;5067271;28;20060;-61
2024/03/20 08:44:35;;;;;;;6.45;4.05;;;;;;;;;;5059401;28;20053;-61
2024/03/20 08:47:01;;;;;;;6.82;4.22;;;;;;;;;;5067819;28;20498;-61
2024/03/20 08:49:31;;;;;;;7.53;3.92;;;;;;;;;;5073476;28;20060;-62
2024/03/20 08:51:56;;;;;;;7.13;4.30;;;;;;;;;;5061894;28;20477;-61
2024/03/20 08:54:24;;;;;;;7.35;3.97;;;;;;;;;;5072062;28;20048;-59
2024/03/20 08:56:51;;;;;;;7.93;3.95;;;;;;;;;;5064465;28;20059;-62
2024/03/20 08:59:18;;;;;;;5.28;3.65;;;;;;;;;;5069932;28;20068;-60
2024/03/20 09:01:44;;;;;;;5.45;3.65;;;;;;;;;;5065675;28;20076;-60
2024/03/20 09:04:11;;;;;;;7.72;3.83;;;;;;;;;;5061860;28;20052;-60
2024/03/20 09:06:37;;;;;;;7.50;3.78;;;;;;;;;;5066429;28;20049;-60
2024/03/20 09:09:03;;;;;;;7.75;4.20;;;;;;;;;;5066640;28;20052;-60
2024/03/20 09:11:29;;;;;;;5.85;3.78;;;;;;;;;;5058731;28;20401;-61
2024/03/20 09:13:58;;;;;;;7.03;4.18;;;;;;;;;;5077410;28;20127;-60
2024/03/20 09:16:24;;;;;;;6.35;3.58;;;;;;;;;;5057777;28;20509;-61
2024/03/20 09:18:51;;;;;;;5.68;3.70;;;;;;;;;;5069448;28;20048;-60
2024/03/20 09:21:17;;;;;;;5.10;3.67;;;;;;;;;;5064062;28;20059;-60
2024/03/20 09:23:43;;;;;;;5.40;3.80;;;;;;;;;;5067526;28;20067;-61
2024/03/20 09:26:09;;;;;;;5.22;3.80;;;;;;;;;;5062325;28;20052;-61
2024/03/20 09:28:39;;;;;;;6.55;4.40;;;;;;;;;;5068333;28;20139;-61
2024/03/20 09:31:06;;;;;;;6.30;3.92;;;;;;;;;;5066622;28;20052;-61
2024/03/20 09:33:33;;;;;;;3.45;3.08;;;;;;;;;;5068908;28;20387;-60
2024/03/20 09:35:58;;;;;;;5.88;4.10;;;;;;;;;;5070414;28;20425;-61
2024/03/20 09:38:25;;;;;;;5.50;4.15;;;;;;;;;;5087012;28;20052;-61
2024/03/20 09:40:51;;;;;;;6.50;3.97;;;;;;;;;;5067550;28;20056;-61
2024/03/20 09:43:18;;;;;;;7.05;4.18;;;;;;;;;;5076555;28;20131;-61
2024/03/20 09:45:44;;;;;;;7.10;4.00;;;;;;;;;;5053183;28;20049;-60
2024/03/20 09:48:13;;;;;;;7.32;4.15;;;;;;;;;;5071784;28;20469;-61
2024/03/20 09:50:40;;;;;;;5.80;3.78;;;;;;;;;;5068554;28;20059;-61
2024/03/20 09:53:07;;;;;;;9.73;3.40;;;;;;;;;;5060670;28;20049;-61
2024/03/20 09:55:34;;;;;;;5.88;3.30;;;;;;;;;;5061909;28;20056;-61
2024/03/20 09:58:01;;;;;;;4.78;3.15;;;;;;;;;;5058969;28;20048;-61
2024/03/20 10:00:27;;;;;;;6.57;3.53;;;;;;;;;;5051494;28;20408;-61
2024/03/20 10:02:54;;;;;;;5.00;2.95;;;;;;;;;;5058551;28;20056;-61
2024/03/20 10:05:22;;;;;;;5.20;3.33;;;;;;;;;;5066689;28;20501;-61
2024/03/20 10:07:51;;;;;;;4.78;2.90;;;;;;;;;;5066971;28;20482;-59
2024/03/20 10:10:17;;;;;;;4.10;3.03;;;;;;;;;;5054123;28;20056;-59
2024/03/20 10:12:46;;;;;;;5.50;3.00;;;;;;;;;;5060797;28;20049;-60
2024/03/20 10:15:12;;;;;;;6.68;3.20;;;;;;;;;;5069797;28;20490;-60
2024/03/20 10:17:43;;;;;;;4.38;2.53;;;;;;;;;;5053673;28;20053;-61
2024/03/20 10:20:14;;;;;;;5.50;3.30;;;;;;;;;;5066970;28;20064;-60
2024/03/20 10:22:43;;;;;;;4.18;2.53;;;;;;;;;;5053202;28;20057;-60
2024/03/20 10:25:11;;;;;;;4.10;2.85;;;;;;;;;;5041982;28;20491;-60
2024/03/20 10:27:38;;;;;;;5.77;2.50;;;;;;;;;;5045867;28;20042;-60
2024/03/20 10:30:06;;;;;;;4.32;2.20;;;;;;;;;;5059539;28;20483;-60
2024/03/20 10:32:34;;;;;;;5.15;2.40;;;;;;;;;;5048394;28;20052;-60
2024/03/20 10:35:01;;;;;;;;;;;;;;;;;;5049786;28;20421;-60
2024/03/20 10:37:28;;;;;;;6.68;2.65;;;;;;;;;;5062742;28;19916;-60
2024/03/20 10:39:57;;;;;;;5.90;2.72;;;;;;;;;;5053997;28;20065;-60
2024/03/20 10:42:25;;;;;;;4.78;2.60;;;;;;;;;;5057717;28;20056;-61
2024/03/20 10:44:51;;;;;;;4.72;2.70;;;;;;;;;;5075304;28;20048;-60
2024/03/20 10:47:18;;;;;;;4.60;2.75;;;;;;;;;;5078177;28;20049;-60
2024/03/20 10:49:44;;;;;;;5.53;2.60;;;;;;;;;;5074203;28;20508;-60
2024/03/20 10:52:14;;;;;;;4.10;3.00;;;;;;;;;;5071162;28;20052;-60
2024/03/20 10:54:40;;;;;;;5.22;2.60;;;;;;;;;;5079009;28;20051;-60
2024/03/20 10:57:10;;;;;;;5.05;3.10;;;;;;;;;;5084075;28;20590;-59
2024/03/20 10:59:36;;;;;;;5.22;3.00;;;;;;;;;;5076704;28;20505;-59
2024/03/20 11:02:04;;;;;;;4.32;3.03;;;;;;;;;;5076495;28;20048;-60
2024/03/20 11:04:30;;;;;;;9.20;3.30;;;;;;;;;;5080364;28;20439;-60
2024/03/20 11:06:58;;;;;;;6.65;2.80;;;;;;;;;;5071139;28;20076;-60
2024/03/20 11:09:26;;;;;;;5.43;3.10;;;;;;;;;;5068717;28;20051;-60
2024/03/20 11:11:53;;;;;;;5.13;2.85;;;;;;;;;;5072329;28;20040;-61
2024/03/20 11:14:25;;;;;;;4.45;2.45;;;;;;;;;;5077042;28;20052;-61
2024/03/20 11:16:52;;;;;;;6.03;3.08;;;;;;;;;;5075218;28;20055;-61
2024/03/20 11:19:20;;;;;;;5.82;2.85;;;;;;;;;;5081234;28;20060;-60
2024/03/20 11:21:48;;;;;;;5.40;2.75;;;;;;;;;;5073199;28;20067;-60
2024/03/20 11:24:14;;;;;;;4.75;2.80;;;;;;;;;;5062219;28;20045;-61
2024/03/20 11:26:41;;;;;;;7.03;4.05;;;;;;;;;;5079812;28;20054;-61
2024/03/20 11:29:10;;;;;;;5.68;3.33;;;;;;;;;;5074412;28;20409;-61
2024/03/20 11:31:39;;;;;;;4.88;2.85;;;;;;;;;;5084129;28;20063;-61
2024/03/20 11:34:05;;;;;;;4.07;2.88;;;;;;;;;;5081104;28;20066;-61
2024/03/20 11:36:32;;;;;;;6.20;2.88;;;;;;;;;;5075609;28;20498;-61
2024/03/20 11:38:58;;;;;;;5.65;2.65;;;;;;;;;;5067329;28;20055;-61
2024/03/20 11:41:25;;;;;;;4.10;2.60;;;;;;;;;;5077813;28;20052;-61
2024/03/20 11:43:51;;;;;;;3.92;2.72;;;;;;;;;;5072504;28;20056;-61
2024/03/20 11:46:20;;;;;;;4.95;2.30;;;;;;;;;;5071649;28;20052;-61
2024/03/20 11:48:48;;;;;;;5.72;2.67;;;;;;;;;;5067975;28;20061;-61
2024/03/20 11:51:19;;;;;;;4.45;2.20;;;;;;;;;;5071792;28;20371;-61
2024/03/20 11:53:47;;;;;;;3.30;2.30;;;;;;;;;;5074230;28;20048;-61
2024/03/20 11:56:14;;;;;;;3.90;2.50;;;;;;;;;;5072997;28;20397;-61
2024/03/20 11:58:41;;;;;;;3.67;2.30;;;;;;;;;;5071846;28;20053;-61
2024/03/20 12:01:08;;;;;;;6.32;2.63;;;;;;;;;;5076610;28;20056;-61
2024/03/20 12:03:34;;;;;;;4.35;2.70;;;;;;;;;;5080906;28;20044;-60
2024/03/20 12:06:13;;;;;;;10.95;3.35;;;;;;;;;;5080722;28;20045;-61
2024/03/20 12:08:39;;;;;;;3.90;2.78;;;;;;;;;;5091393;28;20047;-61
2024/03/20 12:11:17;;;;;;;4.38;2.95;;;;;;;;;;5084070;28;20044;-61
2024/03/20 12:13:44;;;;;;;4.22;3.10;;;;;;;;;;5091106;28;20052;-61
2024/03/20 12:16:11;;;;;;;4.88;3.28;;;;;;;;;;5077938;28;20044;-61
2024/03/20 12:18:38;;;;;;;4.43;2.50;;;;;;;;;;5080916;28;20071;-61
2024/03/20 12:21:04;;;;;;;3.47;2.40;;;;;;;;;;5078163;28;20053;-61
2024/03/20 12:23:32;;;;;;;4.13;2.60;;;;;;;;;;5091130;28;20048;-61
2024/03/20 12:25:59;;;;;;;2.88;2.20;;;;;;;;;;5070403;28;20394;-61
2024/03/20 12:28:25;;;;;;;3.88;2.35;;;;;;;;;;5074451;28;20183;-61
2024/03/20 12:30:53;;;;;;;4.40;2.13;;;;;;;;;;5087562;28;20051;-61
2024/03/20 12:33:20;;;;;;;3.85;1.90;;;;;;;;;;5072263;28;20059;-61
2024/03/20 12:35:47;;;;;;;4.43;2.30;;;;;;;;;;5075742;28;20049;-59
2024/03/20 12:38:13;;;;;;;3.63;2.45;;;;;;;;;;5075984;28;20052;-61
2024/03/20 12:40:41;;;;;;;4.50;2.42;;;;;;;;;;5090511;28;20489;-61
2024/03/20 12:43:07;;;;;;;3.38;2.20;;;;;;;;;;5083480;28;20056;-61
2024/03/20 12:45:34;;;;;;;3.95;2.35;;;;;;;;;;5090256;28;20059;-60
2024/03/20 12:48:00;;;;;;;3.92;2.22;;;;;;;;;;5084604;28;20056;-60
2024/03/20 12:50:27;;;;;;;2.63;1.95;;;;;;;;;;5083585;28;20093;-60
2024/03/20 12:52:53;;;;;;;4.68;2.35;;;;;;;;;;5083795;28;20060;-61
2024/03/20 12:55:19;;;;;;;4.50;2.20;;;;;;;;;;5069816;28;20125;-61
2024/03/20 12:57:47;;;;;;;2.38;1.67;;;;;;;;;;5063046;28;20059;-61
2024/03/20 13:00:16;;;;;;;4.47;1.70;;;;;;;;;;5077420;28;20536;-61
2024/03/20 13:02:43;;;;;;;3.22;1.92;;;;;;;;;;5068292;28;20053;-61
2024/03/20 13:05:13;;;;;;;3.78;2.30;;;;;;;;;;5074808;28;20052;-61
2024/03/20 13:07:39;;;;;;;2.60;1.85;;;;;;;;;;5063897;28;20060;-61
2024/03/20 13:10:07;;;;;;;3.70;1.70;;;;;;;;;;5083614;28;20709;-62
2024/03/20 13:12:33;;;;;;;3.90;2.10;;;;;;;;;;5073567;28;20048;-61
2024/03/20 13:15:05;;;;;;;3.80;2.33;;;;;;;;;;5079802;28;20052;-61
2024/03/20 13:17:33;;;;;;;4.05;1.90;;;;;;;;;;5074858;28;20398;-61
2024/03/20 13:20:00;;;;;;;2.92;1.70;;;;;;;;;;5073436;28;20072;-62
2024/03/20 13:22:26;;;;;;;2.63;1.80;;;;;;;;;;5079653;28;20464;-61
2024/03/20 13:24:53;;;;;;;3.95;1.90;;;;;;;;;;5085025;28;20054;-62
2024/03/20 13:27:20;;;;;;;3.67;1.80;;;;;;;;;;5075723;28;20059;-61
2024/03/20 13:29:49;;;;;;;2.35;1.67;;;;;;;;;;5073285;28;20060;-61
2024/03/20 13:32:18;;;;;;;;;;;;;;;;;;5074505;28;20052;-61
2024/03/20 13:34:47;;;;;;;4.53;2.10;;;;;;;;;;5072919;28;20292;-61
2024/03/20 13:37:16;;;;;;;3.85;2.10;;;;;;;;;;5077326;28;20509;-61
2024/03/20 13:39:49;;;;;;;6.30;2.20;;;;;;;;;;5077799;28;20044;-61
2024/03/20 13:42:23;;;;;;;3.28;1.77;;;;;;;;;;5084081;28;20056;-61
2024/03/20 13:44:52;;;;;;;2.40;1.80;;;;;;;;;;5077555;28;20055;-61
2024/03/20 13:47:18;;;;;;;4.18;2.10;;;;;;;;;;5072291;28;20549;-61
2024/03/20 13:49:48;;;;;;;3.42;2.30;;;;;;;;;;5066731;28;20048;-61
2024/03/20 13:52:14;;;;;;;6.20;2.05;;;;;;;;;;5080291;28;20062;-61
2024/03/20 13:54:41;;;;;;;3.67;2.08;;;;;;;;;;5073688;28;20135;-61
2024/03/20 13:57:11;;;;;;;4.07;2.05;;;;;;;;;;5085298;28;20063;-61
2024/03/20 13:59:40;;;;;;;6.53;2.13;;;;;;;;;;5074264;28;20063;-61
2024/03/20 14:02:22;;;;;;;4.18;1.80;;;;;;;;;;5076902;28;20072;-61
2024/03/20 14:04:51;;;;;;;2.90;2.15;;;;;;;;;;5081110;28;20052;-61
2024/03/20 14:07:16;;;;;;;4.70;1.85;;;;;;;;;;5074385;28;20048;-61
2024/03/20 14:09:44;;;;;;;3.25;1.95;;;;;;;;;;5082719;28;20044;-61
2024/03/20 14:12:12;;;;;;;2.47;1.60;;;;;;;;;;5089135;28;20052;-61
2024/03/20 14:14:39;;;;;;;3.22;1.98;;;;;;;;;;5079212;28;20056;-61
2024/03/20 14:17:06;;;;;;;3.38;2.00;;;;;;;;;;5089839;28;20055;-61
2024/03/20 14:19:32;;;;;;;4.35;1.90;;;;;;;;;;5084149;28;20052;-61
2024/03/20 14:22:00;;;;;;;3.80;1.85;;;;;;;;;;5074189;28;20079;-61
2024/03/20 14:24:26;;;;;;;4.30;2.20;;;;;;;;;;5093588;28;20066;-61
2024/03/20 14:26:53;;;;;;;3.38;2.10;;;;;;;;;;5080760;28;20502;-61
2024/03/20 14:29:19;;;;;;;3.38;1.98;;;;;;;;;;5065491;28;20052;-61
2024/03/20 14:31:45;;;;;;;4.18;2.10;;;;;;;;;;5084914;28;20052;-61
2024/03/20 14:34:11;;;;;;;4.07;1.90;;;;;;;;;;5078077;28;20516;-60
2024/03/20 14:36:38;;;;;;;3.03;1.88;;;;;;;;;;5065371;28;20079;-61
2024/03/20 14:39:10;;;;;;;3.58;1.83;;;;;;;;;;5077894;28;20063;-60
2024/03/20 14:41:37;;;;;;;3.35;2.03;;;;;;;;;;5075675;28;20062;-60
2024/03/20 14:44:04;;;;;;;4.75;2.35;;;;;;;;;;5092090;28;20048;-61